sensor_id;sensor_type;location;lat;lon;timestamp;temperature;humidity
70336;SHT31;57756;47.408;18.940;2023-07-02T00:01:39;21.33;85.53
70336;SHT31;57756;47.408;18.940;2023-07-02T00:04:05;21.36;85.36
70336;SHT31;57756;47.408;18.940;2023-07-02T00:06:34;21.35;85.37
70336;SHT31;57756;47.408;18.940;2023-07-02T00:09:07;21.35;85.27
70336;SHT31;57756;47.408;18.940;2023-07-02T00:11:32;21.32;85.19
70336;SHT31;57756;47.408;18.940;2023-07-02T00:13:58;21.33;85.10
70336;SHT31;57756;47.408;18.940;2023-07-02T00:16:23;21.37;84.93
70336;SHT31;57756;47.408;18.940;2023-07-02T00:18:49;21.33;84.80
70336;SHT31;57756;47.408;18.940;2023-07-02T00:21:18;21.33;84.81
70336;SHT31;57756;47.408;18.940;2023-07-02T00:23:44;21.28;84.70
70336;SHT31;57756;47.408;18.940;2023-07-02T00:26:10;21.25;84.76
70336;SHT31;57756;47.408;18.940;2023-07-02T00:28:35;21.25;84.58
70336;SHT31;57756;47.408;18.940;2023-07-02T00:31:01;21.23;84.56
70336;SHT31;57756;47.408;18.940;2023-07-02T00:33:27;21.19;84.89
70336;SHT31;57756;47.408;18.940;2023-07-02T00:35:54;21.18;84.76
70336;SHT31;57756;47.408;18.940;2023-07-02T00:38:20;21.22;84.51
70336;SHT31;57756;47.408;18.940;2023-07-02T00:40:45;21.16;84.64
70336;SHT31;57756;47.408;18.940;2023-07-02T00:43:11;21.19;84.38
70336;SHT31;57756;47.408;18.940;2023-07-02T00:45:39;21.16;84.23
70336;SHT31;57756;47.408;18.940;2023-07-02T00:48:05;21.15;84.36
70336;SHT31;57756;47.408;18.940;2023-07-02T00:50:31;21.08;84.48
70336;SHT31;57756;47.408;18.940;2023-07-02T00:52:57;21.09;84.56
70336;SHT31;57756;47.408;18.940;2023-07-02T00:55:23;21.06;84.55
70336;SHT31;57756;47.408;18.940;2023-07-02T00:57:49;21.03;84.65
70336;SHT31;57756;47.408;18.940;2023-07-02T01:00:15;21.01;84.42
70336;SHT31;57756;47.408;18.940;2023-07-02T01:02:41;21.01;84.61
70336;SHT31;57756;47.408;18.940;2023-07-02T01:05:18;20.96;84.46
70336;SHT31;57756;47.408;18.940;2023-07-02T01:07:46;20.96;84.42
70336;SHT31;57756;47.408;18.940;2023-07-02T01:10:12;20.95;84.29
70336;SHT31;57756;47.408;18.940;2023-07-02T01:12:38;20.95;84.07
70336;SHT31;57756;47.408;18.940;2023-07-02T01:15:05;20.96;84.21
70336;SHT31;57756;47.408;18.940;2023-07-02T01:17:31;20.91;84.09
70336;SHT31;57756;47.408;18.940;2023-07-02T01:20:07;20.91;84.01
70336;SHT31;57756;47.408;18.940;2023-07-02T01:22:33;20.94;83.92
70336;SHT31;57756;47.408;18.940;2023-07-02T01:24:59;20.95;83.51
70336;SHT31;57756;47.408;18.940;2023-07-02T01:27:28;20.92;83.65
70336;SHT31;57756;47.408;18.940;2023-07-02T01:29:53;20.87;83.65
70336;SHT31;57756;47.408;18.940;2023-07-02T01:32:19;20.88;83.59
70336;SHT31;57756;47.408;18.940;2023-07-02T01:34:45;20.90;83.44
70336;SHT31;57756;47.408;18.940;2023-07-02T01:37:16;20.88;83.67
70336;SHT31;57756;47.408;18.940;2023-07-02T01:39:43;20.90;83.46
70336;SHT31;57756;47.408;18.940;2023-07-02T01:42:15;20.94;83.37
70336;SHT31;57756;47.408;18.940;2023-07-02T01:44:42;20.94;83.20
70336;SHT31;57756;47.408;18.940;2023-07-02T01:47:07;20.96;82.80
70336;SHT31;57756;47.408;18.940;2023-07-02T01:49:33;20.94;82.68
70336;SHT31;57756;47.408;18.940;2023-07-02T01:51:59;20.94;82.79
70336;SHT31;57756;47.408;18.940;2023-07-02T01:54:26;20.95;82.98
70336;SHT31;57756;47.408;18.940;2023-07-02T01:56:52;20.94;82.98
70336;SHT31;57756;47.408;18.940;2023-07-02T01:59:18;20.96;82.87
70336;SHT31;57756;47.408;18.940;2023-07-02T02:01:43;20.95;82.97
70336;SHT31;57756;47.408;18.940;2023-07-02T02:04:09;20.92;82.93
70336;SHT31;57756;47.408;18.940;2023-07-02T02:06:36;20.90;82.93
70336;SHT31;57756;47.408;18.940;2023-07-02T02:09:02;20.87;83.25
70336;SHT31;57756;47.408;18.940;2023-07-02T02:11:32;20.85;83.12
70336;SHT31;57756;47.408;18.940;2023-07-02T02:13:58;20.81;82.97
70336;SHT31;57756;47.408;18.940;2023-07-02T02:16:24;20.78;83.19
70336;SHT31;57756;47.408;18.940;2023-07-02T02:18:49;20.82;82.97
70336;SHT31;57756;47.408;18.940;2023-07-02T02:21:18;20.84;82.79
70336;SHT31;57756;47.408;18.940;2023-07-02T02:23:44;20.84;82.82
70336;SHT31;57756;47.408;18.940;2023-07-02T02:26:10;20.81;82.47
70336;SHT31;57756;47.408;18.940;2023-07-02T02:28:35;20.84;82.41
70336;SHT31;57756;47.408;18.940;2023-07-02T02:31:01;20.77;82.63
70336;SHT31;57756;47.408;18.940;2023-07-02T02:33:27;20.78;82.47
70336;SHT31;57756;47.408;18.940;2023-07-02T02:35:53;20.78;82.22
70336;SHT31;57756;47.408;18.940;2023-07-02T02:38:18;20.80;82.37
70336;SHT31;57756;47.408;18.940;2023-07-02T02:40:44;20.75;81.87
70336;SHT31;57756;47.408;18.940;2023-07-02T02:43:09;20.78;82.06
70336;SHT31;57756;47.408;18.940;2023-07-02T02:45:35;20.75;82.26
70336;SHT31;57756;47.408;18.940;2023-07-02T02:48:00;20.72;82.03
70336;SHT31;57756;47.408;18.940;2023-07-02T02:50:25;20.75;81.74
70336;SHT31;57756;47.408;18.940;2023-07-02T02:52:52;20.75;81.52
70336;SHT31;57756;47.408;18.940;2023-07-02T02:55:18;20.74;81.50
70336;SHT31;57756;47.408;18.940;2023-07-02T02:57:44;20.72;81.53
70336;SHT31;57756;47.408;18.940;2023-07-02T03:00:10;20.70;81.31
70336;SHT31;57756;47.408;18.940;2023-07-02T03:02:37;20.71;80.78
70336;SHT31;57756;47.408;18.940;2023-07-02T03:05:03;20.67;80.93
70336;SHT31;57756;47.408;18.940;2023-07-02T03:07:29;20.68;80.98
70336;SHT31;57756;47.408;18.940;2023-07-02T03:09:55;20.68;80.91
70336;SHT31;57756;47.408;18.940;2023-07-02T03:12:21;20.71;80.95
70336;SHT31;57756;47.408;18.940;2023-07-02T03:14:47;20.68;80.83
70336;SHT31;57756;47.408;18.940;2023-07-02T03:17:17;20.70;80.88
70336;SHT31;57756;47.408;18.940;2023-07-02T03:19:42;20.67;80.85
70336;SHT31;57756;47.408;18.940;2023-07-02T03:22:07;20.67;80.66
70336;SHT31;57756;47.408;18.940;2023-07-02T03:24:33;20.67;80.73
70336;SHT31;57756;47.408;18.940;2023-07-02T03:26:58;20.61;80.64
70336;SHT31;57756;47.408;18.940;2023-07-02T03:29:24;20.58;80.50
70336;SHT31;57756;47.408;18.940;2023-07-02T03:31:49;20.60;80.84
70336;SHT31;57756;47.408;18.940;2023-07-02T03:34:15;20.60;81.32
70336;SHT31;57756;47.408;18.940;2023-07-02T03:36:40;20.54;80.77
70336;SHT31;57756;47.408;18.940;2023-07-02T03:39:05;20.55;81.49
70336;SHT31;57756;47.408;18.940;2023-07-02T03:41:31;20.58;81.26
70336;SHT31;57756;47.408;18.940;2023-07-02T03:43:57;20.54;81.17
70336;SHT31;57756;47.408;18.940;2023-07-02T03:46:22;20.54;80.78
70336;SHT31;57756;47.408;18.940;2023-07-02T03:48:48;20.57;81.13
70336;SHT31;57756;47.408;18.940;2023-07-02T03:51:14;20.57;80.46
70336;SHT31;57756;47.408;18.940;2023-07-02T03:53:41;20.58;80.47
70336;SHT31;57756;47.408;18.940;2023-07-02T03:56:06;20.64;80.19
70336;SHT31;57756;47.408;18.940;2023-07-02T03:58:32;20.64;80.06
70336;SHT31;57756;47.408;18.940;2023-07-02T04:00:57;20.67;79.80
70336;SHT31;57756;47.408;18.940;2023-07-02T04:03:23;20.68;79.98
70336;SHT31;57756;47.408;18.940;2023-07-02T04:05:48;20.68;80.21
70336;SHT31;57756;47.408;18.940;2023-07-02T04:08:15;20.68;79.91
70336;SHT31;57756;47.408;18.940;2023-07-02T04:10:40;20.80;79.66
70336;SHT31;57756;47.408;18.940;2023-07-02T04:13:06;20.80;79.23
70336;SHT31;57756;47.408;18.940;2023-07-02T04:15:32;20.84;79.13
70336;SHT31;57756;47.408;18.940;2023-07-02T04:17:58;20.84;79.25
70336;SHT31;57756;47.408;18.940;2023-07-02T04:20:23;20.85;79.24
70336;SHT31;57756;47.408;18.940;2023-07-02T04:22:48;20.87;78.96
70336;SHT31;57756;47.408;18.940;2023-07-02T04:25:15;20.95;78.95
70336;SHT31;57756;47.408;18.940;2023-07-02T04:27:44;21.01;79.46
70336;SHT31;57756;47.408;18.940;2023-07-02T04:30:12;21.02;79.17
70336;SHT31;57756;47.408;18.940;2023-07-02T04:32:39;21.05;78.51
70336;SHT31;57756;47.408;18.940;2023-07-02T04:35:08;21.13;78.76
70336;SHT31;57756;47.408;18.940;2023-07-02T04:37:35;21.20;77.94
70336;SHT31;57756;47.408;18.940;2023-07-02T04:40:01;21.23;77.80
70336;SHT31;57756;47.408;18.940;2023-07-02T04:42:29;21.36;78.90
70336;SHT31;57756;47.408;18.940;2023-07-02T04:44:57;21.40;77.22
70336;SHT31;57756;47.408;18.940;2023-07-02T04:47:28;21.47;77.17
70336;SHT31;57756;47.408;18.940;2023-07-02T04:49:53;21.60;77.19
70336;SHT31;57756;47.408;18.940;2023-07-02T04:52:18;21.88;76.16
70336;SHT31;57756;47.408;18.940;2023-07-02T04:54:44;22.08;75.15
70336;SHT31;57756;47.408;18.940;2023-07-02T04:57:09;22.01;75.25
70336;SHT31;57756;47.408;18.940;2023-07-02T04:59:35;22.00;75.45
70336;SHT31;57756;47.408;18.940;2023-07-02T05:02:00;21.88;75.34
70336;SHT31;57756;47.408;18.940;2023-07-02T05:04:26;21.98;75.32
70336;SHT31;57756;47.408;18.940;2023-07-02T05:06:51;21.98;75.68
70336;SHT31;57756;47.408;18.940;2023-07-02T05:09:17;22.05;75.54
70336;SHT31;57756;47.408;18.940;2023-07-02T05:11:42;22.15;75.42
70336;SHT31;57756;47.408;18.940;2023-07-02T05:14:08;22.21;75.33
70336;SHT31;57756;47.408;18.940;2023-07-02T05:16:33;22.22;75.10
70336;SHT31;57756;47.408;18.940;2023-07-02T05:18:59;22.21;74.74
70336;SHT31;57756;47.408;18.940;2023-07-02T05:21:24;22.18;75.17
70336;SHT31;57756;47.408;18.940;2023-07-02T05:23:50;22.18;74.76
70336;SHT31;57756;47.408;18.940;2023-07-02T05:26:15;22.25;75.07
70336;SHT31;57756;47.408;18.940;2023-07-02T05:28:41;22.25;74.82
70336;SHT31;57756;47.408;18.940;2023-07-02T05:31:06;22.16;74.89
70336;SHT31;57756;47.408;18.940;2023-07-02T05:33:32;22.21;74.86
70336;SHT31;57756;47.408;18.940;2023-07-02T05:35:58;22.21;74.81
70336;SHT31;57756;47.408;18.940;2023-07-02T05:38:24;22.28;74.99
70336;SHT31;57756;47.408;18.940;2023-07-02T05:40:50;22.23;75.20
70336;SHT31;57756;47.408;18.940;2023-07-02T05:43:15;22.19;74.96
70336;SHT31;57756;47.408;18.940;2023-07-02T05:45:41;22.35;74.70
70336;SHT31;57756;47.408;18.940;2023-07-02T05:48:06;22.45;74.30
70336;SHT31;57756;47.408;18.940;2023-07-02T05:50:32;22.42;74.61
70336;SHT31;57756;47.408;18.940;2023-07-02T05:52:57;22.45;74.08
70336;SHT31;57756;47.408;18.940;2023-07-02T05:55:23;22.46;74.17
70336;SHT31;57756;47.408;18.940;2023-07-02T05:57:48;22.52;73.71
70336;SHT31;57756;47.408;18.940;2023-07-02T06:00:14;22.69;73.23
70336;SHT31;57756;47.408;18.940;2023-07-02T06:02:40;22.74;73.27
70336;SHT31;57756;47.408;18.940;2023-07-02T06:05:05;22.93;72.75
70336;SHT31;57756;47.408;18.940;2023-07-02T06:07:31;23.03;73.05
70336;SHT31;57756;47.408;18.940;2023-07-02T06:09:57;22.97;72.34
70336;SHT31;57756;47.408;18.940;2023-07-02T06:12:22;23.10;72.81
70336;SHT31;57756;47.408;18.940;2023-07-02T06:14:48;23.15;72.78
70336;SHT31;57756;47.408;18.940;2023-07-02T06:17:14;23.31;72.33
70336;SHT31;57756;47.408;18.940;2023-07-02T06:19:40;23.67;72.14
70336;SHT31;57756;47.408;18.940;2023-07-02T06:22:06;23.83;71.05
70336;SHT31;57756;47.408;18.940;2023-07-02T06:24:31;24.09;70.92
70336;SHT31;57756;47.408;18.940;2023-07-02T06:26:57;24.64;69.65
70336;SHT31;57756;47.408;18.940;2023-07-02T06:29:23;25.16;68.84
70336;SHT31;57756;47.408;18.940;2023-07-02T06:31:49;25.82;67.06
70336;SHT31;57756;47.408;18.940;2023-07-02T06:34:15;25.71;67.14
70336;SHT31;57756;47.408;18.940;2023-07-02T06:36:40;25.55;67.88
70336;SHT31;57756;47.408;18.940;2023-07-02T06:39:06;25.54;67.03
70336;SHT31;57756;47.408;18.940;2023-07-02T06:41:32;25.35;67.46
70336;SHT31;57756;47.408;18.940;2023-07-02T06:43:57;25.60;67.43
70336;SHT31;57756;47.408;18.940;2023-07-02T06:46:23;25.72;67.08
70336;SHT31;57756;47.408;18.940;2023-07-02T06:48:48;25.86;67.95
70336;SHT31;57756;47.408;18.940;2023-07-02T06:51:13;25.96;66.40
70336;SHT31;57756;47.408;18.940;2023-07-02T06:53:41;26.22;66.04
70336;SHT31;57756;47.408;18.940;2023-07-02T06:56:09;26.18;65.77
70336;SHT31;57756;47.408;18.940;2023-07-02T06:58:35;26.23;66.38
70336;SHT31;57756;47.408;18.940;2023-07-02T07:01:01;26.13;66.73
70336;SHT31;57756;47.408;18.940;2023-07-02T07:03:26;26.26;66.85
70336;SHT31;57756;47.408;18.940;2023-07-02T07:05:52;26.36;66.61
70336;SHT31;57756;47.408;18.940;2023-07-02T07:08:18;26.43;66.39
70336;SHT31;57756;47.408;18.940;2023-07-02T07:10:43;26.85;65.85
70336;SHT31;57756;47.408;18.940;2023-07-02T07:13:11;26.95;65.95
70336;SHT31;57756;47.408;18.940;2023-07-02T07:15:36;27.50;63.60
70336;SHT31;57756;47.408;18.940;2023-07-02T07:18:02;27.90;62.57
70336;SHT31;57756;47.408;18.940;2023-07-02T07:20:29;28.32;62.34
70336;SHT31;57756;47.408;18.940;2023-07-02T07:22:55;28.35;61.08
70336;SHT31;57756;47.408;18.940;2023-07-02T07:25:20;28.02;61.02
70336;SHT31;57756;47.408;18.940;2023-07-02T07:27:46;27.86;60.64
70336;SHT31;57756;47.408;18.940;2023-07-02T07:30:11;27.71;61.31
70336;SHT31;57756;47.408;18.940;2023-07-02T07:32:37;27.69;61.48
70336;SHT31;57756;47.408;18.940;2023-07-02T07:35:03;27.88;62.68
70336;SHT31;57756;47.408;18.940;2023-07-02T07:37:29;28.02;61.21
70336;SHT31;57756;47.408;18.940;2023-07-02T07:39:54;28.39;59.89
70336;SHT31;57756;47.408;18.940;2023-07-02T07:42:20;28.83;59.66
70336;SHT31;57756;47.408;18.940;2023-07-02T07:44:46;29.03;59.48
70336;SHT31;57756;47.408;18.940;2023-07-02T07:47:11;28.53;59.51
70336;SHT31;57756;47.408;18.940;2023-07-02T07:49:37;28.59;59.75
70336;SHT31;57756;47.408;18.940;2023-07-02T07:52:03;28.67;59.96
70336;SHT31;57756;47.408;18.940;2023-07-02T07:54:29;28.86;60.30
70336;SHT31;57756;47.408;18.940;2023-07-02T07:56:54;28.70;59.98
70336;SHT31;57756;47.408;18.940;2023-07-02T07:59:20;28.76;60.97
70336;SHT31;57756;47.408;18.940;2023-07-02T08:01:45;28.82;60.42
70336;SHT31;57756;47.408;18.940;2023-07-02T08:04:12;28.48;60.15
70336;SHT31;57756;47.408;18.940;2023-07-02T08:06:37;28.36;61.22
70336;SHT31;57756;47.408;18.940;2023-07-02T08:09:03;28.12;60.65
70336;SHT31;57756;47.408;18.940;2023-07-02T08:11:29;27.81;61.19
70336;SHT31;57756;47.408;18.940;2023-07-02T08:13:54;27.73;61.89
70336;SHT31;57756;47.408;18.940;2023-07-02T08:16:20;27.74;62.40
70336;SHT31;57756;47.408;18.940;2023-07-02T08:18:45;27.77;61.17
70336;SHT31;57756;47.408;18.940;2023-07-02T08:21:11;27.56;61.50
70336;SHT31;57756;47.408;18.940;2023-07-02T08:23:37;27.60;61.07
70336;SHT31;57756;47.408;18.940;2023-07-02T08:26:02;27.39;60.37
70336;SHT31;57756;47.408;18.940;2023-07-02T08:28:28;27.29;60.86
70336;SHT31;57756;47.408;18.940;2023-07-02T08:30:54;27.43;60.90
70336;SHT31;57756;47.408;18.940;2023-07-02T08:33:19;27.94;60.87
70336;SHT31;57756;47.408;18.940;2023-07-02T08:35:45;28.44;59.84
70336;SHT31;57756;47.408;18.940;2023-07-02T08:38:11;28.60;58.83
70336;SHT31;57756;47.408;18.940;2023-07-02T08:40:36;29.11;59.53
70336;SHT31;57756;47.408;18.940;2023-07-02T08:43:02;30.02;57.04
70336;SHT31;57756;47.408;18.940;2023-07-02T08:45:27;30.33;55.72
70336;SHT31;57756;47.408;18.940;2023-07-02T08:47:53;30.72;55.50
70336;SHT31;57756;47.408;18.940;2023-07-02T08:50:23;30.95;56.07
70336;SHT31;57756;47.408;18.940;2023-07-02T08:52:49;30.82;53.89
70336;SHT31;57756;47.408;18.940;2023-07-02T08:55:14;30.33;55.06
70336;SHT31;57756;47.408;18.940;2023-07-02T08:57:42;30.02;56.15
70336;SHT31;57756;47.408;18.940;2023-07-02T09:00:14;29.97;56.45
70336;SHT31;57756;47.408;18.940;2023-07-02T09:02:40;30.40;54.96
70336;SHT31;57756;47.408;18.940;2023-07-02T09:05:06;30.89;54.41
70336;SHT31;57756;47.408;18.940;2023-07-02T09:07:32;31.16;54.89
70336;SHT31;57756;47.408;18.940;2023-07-02T09:09:57;31.23;53.88
70336;SHT31;57756;47.408;18.940;2023-07-02T09:12:26;31.29;53.96
70336;SHT31;57756;47.408;18.940;2023-07-02T09:15:01;31.15;53.82
70336;SHT31;57756;47.408;18.940;2023-07-02T09:17:37;31.99;53.83
70336;SHT31;57756;47.408;18.940;2023-07-02T09:20:07;33.14;51.08
70336;SHT31;57756;47.408;18.940;2023-07-02T09:22:34;33.19;50.88
70336;SHT31;57756;47.408;18.940;2023-07-02T09:25:01;32.92;51.23
70336;SHT31;57756;47.408;18.940;2023-07-02T09:27:40;32.83;51.70
70336;SHT31;57756;47.408;18.940;2023-07-02T09:30:08;32.28;51.70
70336;SHT31;57756;47.408;18.940;2023-07-02T09:32:34;32.63;50.93
70336;SHT31;57756;47.408;18.940;2023-07-02T09:34:59;33.22;50.34
70336;SHT31;57756;47.408;18.940;2023-07-02T09:37:25;33.66;49.28
70336;SHT31;57756;47.408;18.940;2023-07-02T09:39:52;33.63;48.87
70336;SHT31;57756;47.408;18.940;2023-07-02T09:42:19;34.33;48.50
70336;SHT31;57756;47.408;18.940;2023-07-02T09:44:45;34.25;48.01
70336;SHT31;57756;47.408;18.940;2023-07-02T09:47:12;34.49;48.53
70336;SHT31;57756;47.408;18.940;2023-07-02T09:49:43;35.03;47.19
70336;SHT31;57756;47.408;18.940;2023-07-02T09:52:11;34.61;47.45
70336;SHT31;57756;47.408;18.940;2023-07-02T09:54:37;35.17;46.81
70336;SHT31;57756;47.408;18.940;2023-07-02T09:57:04;34.96;45.82
70336;SHT31;57756;47.408;18.940;2023-07-02T09:59:31;35.67;47.41
70336;SHT31;57756;47.408;18.940;2023-07-02T10:01:57;35.54;46.41
70336;SHT31;57756;47.408;18.940;2023-07-02T10:04:23;35.30;45.77
70336;SHT31;57756;47.408;18.940;2023-07-02T10:06:56;35.73;45.97
70336;SHT31;57756;47.408;18.940;2023-07-02T10:09:35;35.71;45.77
70336;SHT31;57756;47.408;18.940;2023-07-02T10:12:01;35.77;47.43
70336;SHT31;57756;47.408;18.940;2023-07-02T10:14:26;35.89;47.12
70336;SHT31;57756;47.408;18.940;2023-07-02T10:16:53;35.76;45.59
70336;SHT31;57756;47.408;18.940;2023-07-02T10:19:19;35.94;46.01
70336;SHT31;57756;47.408;18.940;2023-07-02T10:21:45;36.16;46.15
70336;SHT31;57756;47.408;18.940;2023-07-02T10:24:12;36.52;44.39
70336;SHT31;57756;47.408;18.940;2023-07-02T10:26:38;36.12;45.21
70336;SHT31;57756;47.408;18.940;2023-07-02T10:29:04;36.39;45.82
70336;SHT31;57756;47.408;18.940;2023-07-02T10:31:31;37.08;45.33
70336;SHT31;57756;47.408;18.940;2023-07-02T10:33:56;36.47;44.58
70336;SHT31;57756;47.408;18.940;2023-07-02T10:36:24;36.52;45.44
70336;SHT31;57756;47.408;18.940;2023-07-02T10:38:50;36.26;45.53
70336;SHT31;57756;47.408;18.940;2023-07-02T10:41:29;37.28;44.96
70336;SHT31;57756;47.408;18.940;2023-07-02T10:44:13;37.15;43.93
70336;SHT31;57756;47.408;18.940;2023-07-02T10:46:46;36.60;45.48
70336;SHT31;57756;47.408;18.940;2023-07-02T10:49:11;37.29;44.52
70336;SHT31;57756;47.408;18.940;2023-07-02T10:51:38;37.13;43.94
70336;SHT31;57756;47.408;18.940;2023-07-02T10:54:04;37.19;46.42
70336;SHT31;57756;47.408;18.940;2023-07-02T10:56:32;37.38;43.76
70336;SHT31;57756;47.408;18.940;2023-07-02T10:58:58;37.13;43.35
70336;SHT31;57756;47.408;18.940;2023-07-02T11:01:24;36.97;42.96
70336;SHT31;57756;47.408;18.940;2023-07-02T11:06:23;36.46;44.60
70336;SHT31;57756;47.408;18.940;2023-07-02T11:08:49;37.11;44.03
70336;SHT31;57756;47.408;18.940;2023-07-02T11:11:14;36.22;44.46
70336;SHT31;57756;47.408;18.940;2023-07-02T11:13:44;35.61;45.02
70336;SHT31;57756;47.408;18.940;2023-07-02T11:16:23;36.63;45.18
70336;SHT31;57756;47.408;18.940;2023-07-02T11:19:16;36.37;44.54
70336;SHT31;57756;47.408;18.940;2023-07-02T11:21:53;36.19;44.49
70336;SHT31;57756;47.408;18.940;2023-07-02T11:24:29;34.72;46.61
70336;SHT31;57756;47.408;18.940;2023-07-02T11:26:55;35.41;45.47
70336;SHT31;57756;47.408;18.940;2023-07-02T11:29:21;36.05;46.74
70336;SHT31;57756;47.408;18.940;2023-07-02T11:31:47;36.73;44.90
70336;SHT31;57756;47.408;18.940;2023-07-02T11:34:13;36.74;44.71
70336;SHT31;57756;47.408;18.940;2023-07-02T11:36:39;36.46;43.61
70336;SHT31;57756;47.408;18.940;2023-07-02T11:39:04;36.28;44.83
70336;SHT31;57756;47.408;18.940;2023-07-02T11:41:41;36.60;44.65
70336;SHT31;57756;47.408;18.940;2023-07-02T11:44:07;36.36;44.26
70336;SHT31;57756;47.408;18.940;2023-07-02T11:46:32;36.26;44.07
70336;SHT31;57756;47.408;18.940;2023-07-02T11:49:00;36.66;45.12
70336;SHT31;57756;47.408;18.940;2023-07-02T11:51:26;36.88;43.92
70336;SHT31;57756;47.408;18.940;2023-07-02T11:53:51;37.08;44.04
70336;SHT31;57756;47.408;18.940;2023-07-02T11:56:17;37.24;44.62
70336;SHT31;57756;47.408;18.940;2023-07-02T11:58:42;37.31;43.46
70336;SHT31;57756;47.408;18.940;2023-07-02T12:01:08;36.36;44.28
70336;SHT31;57756;47.408;18.940;2023-07-02T12:03:34;35.34;45.71
70336;SHT31;57756;47.408;18.940;2023-07-02T12:05:59;35.12;46.60
70336;SHT31;57756;47.408;18.940;2023-07-02T12:08:24;36.16;46.02
70336;SHT31;57756;47.408;18.940;2023-07-02T12:10:50;36.47;46.20
70336;SHT31;57756;47.408;18.940;2023-07-02T12:13:16;36.73;44.66
70336;SHT31;57756;47.408;18.940;2023-07-02T12:15:41;36.04;44.81
70336;SHT31;57756;47.408;18.940;2023-07-02T12:18:08;36.06;45.80
70336;SHT31;57756;47.408;18.940;2023-07-02T12:20:34;35.41;45.85
70336;SHT31;57756;47.408;18.940;2023-07-02T12:23:00;35.94;45.26
70336;SHT31;57756;47.408;18.940;2023-07-02T12:25:25;35.50;45.47
70336;SHT31;57756;47.408;18.940;2023-07-02T12:27:51;35.46;45.38
70336;SHT31;57756;47.408;18.940;2023-07-02T12:30:16;35.16;45.51
70336;SHT31;57756;47.408;18.940;2023-07-02T12:32:43;34.34;46.67
70336;SHT31;57756;47.408;18.940;2023-07-02T12:35:09;33.79;47.01
70336;SHT31;57756;47.408;18.940;2023-07-02T12:37:35;34.23;48.25
70336;SHT31;57756;47.408;18.940;2023-07-02T12:40:00;34.66;47.33
70336;SHT31;57756;47.408;18.940;2023-07-02T12:42:26;34.88;47.38
70336;SHT31;57756;47.408;18.940;2023-07-02T12:44:52;34.55;47.00
70336;SHT31;57756;47.408;18.940;2023-07-02T12:47:17;34.44;46.75
70336;SHT31;57756;47.408;18.940;2023-07-02T12:49:43;33.93;46.63
70336;SHT31;57756;47.408;18.940;2023-07-02T12:52:08;33.62;48.46
70336;SHT31;57756;47.408;18.940;2023-07-02T12:54:34;33.38;48.12
70336;SHT31;57756;47.408;18.940;2023-07-02T12:56:59;33.17;48.94
70336;SHT31;57756;47.408;18.940;2023-07-02T12:59:25;33.21;47.97
70336;SHT31;57756;47.408;18.940;2023-07-02T13:01:51;32.77;48.88
70336;SHT31;57756;47.408;18.940;2023-07-02T13:04:16;32.73;50.04
70336;SHT31;57756;47.408;18.940;2023-07-02T13:06:42;33.49;48.94
70336;SHT31;57756;47.408;18.940;2023-07-02T13:09:10;33.77;47.77
70336;SHT31;57756;47.408;18.940;2023-07-02T13:11:35;33.31;48.36
70336;SHT31;57756;47.408;18.940;2023-07-02T13:14:01;32.59;49.45
70336;SHT31;57756;47.408;18.940;2023-07-02T13:16:26;32.64;50.58
70336;SHT31;57756;47.408;18.940;2023-07-02T13:18:52;32.96;49.49
70336;SHT31;57756;47.408;18.940;2023-07-02T13:21:20;32.66;48.48
70336;SHT31;57756;47.408;18.940;2023-07-02T13:23:46;32.48;49.63
70336;SHT31;57756;47.408;18.940;2023-07-02T13:26:11;32.55;49.78
70336;SHT31;57756;47.408;18.940;2023-07-02T13:28:37;32.69;49.62
70336;SHT31;57756;47.408;18.940;2023-07-02T13:31:02;33.35;49.57
70336;SHT31;57756;47.408;18.940;2023-07-02T13:33:28;33.70;49.77
70336;SHT31;57756;47.408;18.940;2023-07-02T13:35:54;33.73;48.40
70336;SHT31;57756;47.408;18.940;2023-07-02T13:38:20;33.92;47.11
70336;SHT31;57756;47.408;18.940;2023-07-02T13:40:45;33.85;46.15
70336;SHT31;57756;47.408;18.940;2023-07-02T13:43:11;33.51;46.55
70336;SHT31;57756;47.408;18.940;2023-07-02T13:45:36;33.24;46.52
70336;SHT31;57756;47.408;18.940;2023-07-02T13:48:02;33.34;46.79
70336;SHT31;57756;47.408;18.940;2023-07-02T13:50:27;32.77;47.10
70336;SHT31;57756;47.408;18.940;2023-07-02T13:52:53;32.56;48.00
70336;SHT31;57756;47.408;18.940;2023-07-02T13:55:18;32.43;47.86
70336;SHT31;57756;47.408;18.940;2023-07-02T13:57:44;31.96;48.17
70336;SHT31;57756;47.408;18.940;2023-07-02T14:00:09;32.18;48.91
70336;SHT31;57756;47.408;18.940;2023-07-02T14:02:35;31.81;48.19
70336;SHT31;57756;47.408;18.940;2023-07-02T14:05:01;31.84;49.61
70336;SHT31;57756;47.408;18.940;2023-07-02T14:07:26;31.86;49.02
70336;SHT31;57756;47.408;18.940;2023-07-02T14:09:52;31.40;48.41
70336;SHT31;57756;47.408;18.940;2023-07-02T14:12:17;31.56;50.54
70336;SHT31;57756;47.408;18.940;2023-07-02T14:14:43;31.73;49.71
70336;SHT31;57756;47.408;18.940;2023-07-02T14:17:08;31.67;49.05
70336;SHT31;57756;47.408;18.940;2023-07-02T14:19:34;31.36;49.44
70336;SHT31;57756;47.408;18.940;2023-07-02T14:21:59;31.27;49.35
70336;SHT31;57756;47.408;18.940;2023-07-02T14:24:25;31.12;49.91
70336;SHT31;57756;47.408;18.940;2023-07-02T14:26:51;31.08;49.55
70336;SHT31;57756;47.408;18.940;2023-07-02T14:29:17;30.75;49.80
70336;SHT31;57756;47.408;18.940;2023-07-02T14:31:42;30.68;50.80
70336;SHT31;57756;47.408;18.940;2023-07-02T14:34:08;30.51;50.58
70336;SHT31;57756;47.408;18.940;2023-07-02T14:36:33;30.49;51.03
70336;SHT31;57756;47.408;18.940;2023-07-02T14:38:59;30.30;51.21
70336;SHT31;57756;47.408;18.940;2023-07-02T14:41:24;30.20;51.88
70336;SHT31;57756;47.408;18.940;2023-07-02T14:43:50;30.25;52.42
70336;SHT31;57756;47.408;18.940;2023-07-02T14:46:15;30.27;53.50
70336;SHT31;57756;47.408;18.940;2023-07-02T14:48:40;30.27;52.98
70336;SHT31;57756;47.408;18.940;2023-07-02T14:51:06;30.35;53.35
70336;SHT31;57756;47.408;18.940;2023-07-02T14:53:32;30.10;52.75
70336;SHT31;57756;47.408;18.940;2023-07-02T14:56:01;30.09;53.25
70336;SHT31;57756;47.408;18.940;2023-07-02T14:58:28;29.99;54.03
70336;SHT31;57756;47.408;18.940;2023-07-02T15:00:56;29.99;53.76
70336;SHT31;57756;47.408;18.940;2023-07-02T15:03:24;29.73;54.19
70336;SHT31;57756;47.408;18.940;2023-07-02T15:05:50;29.73;54.36
70336;SHT31;57756;47.408;18.940;2023-07-02T15:08:16;29.72;54.52
70336;SHT31;57756;47.408;18.940;2023-07-02T15:10:45;29.49;54.54
70336;SHT31;57756;47.408;18.940;2023-07-02T15:13:11;29.54;55.07